sensor_id;sensor_type;location;lat;lon;timestamp;P1;durP1;ratioP1;P2;durP2;ratioP2
23185;SDS011;11761;51.324;4.590;2023-03-01T00:07:57;21.30;;;11.55;;
23185;SDS011;11761;51.324;4.590;2023-03-01T00:10:24;20.55;;;11.95;;
23185;SDS011;11761;51.324;4.590;2023-03-01T00:12:51;21.48;;;11.65;;
23185;SDS011;11761;51.324;4.590;2023-03-01T00:15:17;19.70;;;11.88;;
23185;SDS011;11761;51.324;4.590;2023-03-01T00:17:43;20.27;;;12.48;;
23185;SDS011;11761;51.324;4.590;2023-03-01T00:20:12;21.27;;;12.23;;
23185;SDS011;11761;51.324;4.590;2023-03-01T00:22:38;20.40;;;12.32;;
23185;SDS011;11761;51.324;4.590;2023-03-01T00:25:04;25.98;;;11.90;;
23185;SDS011;11761;51.324;4.590;2023-03-01T00:27:31;21.88;;;12.07;;
23185;SDS011;11761;51.324;4.590;2023-03-01T00:29:57;21.33;;;12.70;;
23185;SDS011;11761;51.324;4.590;2023-03-01T00:32:23;19.63;;;12.10;;
23185;SDS011;11761;51.324;4.590;2023-03-01T00:34:50;20.45;;;11.75;;
23185;SDS011;11761;51.324;4.590;2023-03-01T00:37:21;22.23;;;12.50;;
23185;SDS011;11761;51.324;4.590;2023-03-01T00:39:48;20.35;;;12.45;;
23185;SDS011;11761;51.324;4.590;2023-03-01T00:42:15;20.77;;;11.90;;
23185;SDS011;11761;51.324;4.590;2023-03-01T00:44:41;21.80;;;12.18;;
23185;SDS011;11761;51.324;4.590;2023-03-01T00:47:08;20.02;;;11.88;;
23185;SDS011;11761;51.324;4.590;2023-03-01T00:49:34;18.92;;;11.85;;
23185;SDS011;11761;51.324;4.590;2023-03-01T00:52:01;21.73;;;12.30;;
23185;SDS011;11761;51.324;4.590;2023-03-01T00:54:27;20.13;;;11.75;;
23185;SDS011;11761;51.324;4.590;2023-03-01T00:56:53;19.95;;;11.25;;
23185;SDS011;11761;51.324;4.590;2023-03-01T00:59:20;21.45;;;12.23;;
23185;SDS011;11761;51.324;4.590;2023-03-01T01:01:46;20.63;;;12.32;;
23185;SDS011;11761;51.324;4.590;2023-03-01T01:04:12;24.15;;;12.52;;
23185;SDS011;11761;51.324;4.590;2023-03-01T01:14:08;21.98;;;11.88;;
23185;SDS011;11761;51.324;4.590;2023-03-01T01:16:34;17.60;;;10.82;;
23185;SDS011;11761;51.324;4.590;2023-03-01T01:19:00;18.52;;;11.32;;
23185;SDS011;11761;51.324;4.590;2023-03-01T01:21:27;21.70;;;12.63;;
23185;SDS011;11761;51.324;4.590;2023-03-01T01:23:54;17.73;;;11.50;;
23185;SDS011;11761;51.324;4.590;2023-03-01T01:26:31;22.13;;;11.88;;
23185;SDS011;11761;51.324;4.590;2023-03-01T01:28:59;20.60;;;11.93;;
23185;SDS011;11761;51.324;4.590;2023-03-01T01:31:26;22.25;;;12.52;;
23185;SDS011;11761;51.324;4.590;2023-03-01T01:33:54;22.17;;;12.98;;
23185;SDS011;11761;51.324;4.590;2023-03-01T01:36:20;21.92;;;12.65;;
23185;SDS011;11761;51.324;4.590;2023-03-01T01:38:46;20.10;;;12.07;;
23185;SDS011;11761;51.324;4.590;2023-03-01T01:41:13;21.23;;;12.23;;
23185;SDS011;11761;51.324;4.590;2023-03-01T01:43:41;23.60;;;13.15;;
23185;SDS011;11761;51.324;4.590;2023-03-01T01:46:14;22.92;;;12.10;;
23185;SDS011;11761;51.324;4.590;2023-03-01T01:48:54;23.05;;;12.63;;
23185;SDS011;11761;51.324;4.590;2023-03-01T01:51:28;21.10;;;11.68;;
23185;SDS011;11761;51.324;4.590;2023-03-01T01:54:06;22.52;;;12.73;;
23185;SDS011;11761;51.324;4.590;2023-03-01T01:56:38;21.25;;;12.23;;
23185;SDS011;11761;51.324;4.590;2023-03-01T01:59:08;22.55;;;12.90;;
23185;SDS011;11761;51.324;4.590;2023-03-01T02:01:34;27.10;;;13.05;;
23185;SDS011;11761;51.324;4.590;2023-03-01T02:04:01;20.50;;;12.63;;
23185;SDS011;11761;51.324;4.590;2023-03-01T02:06:49;22.10;;;11.95;;
23185;SDS011;11761;51.324;4.590;2023-03-01T02:09:17;21.25;;;12.43;;
23185;SDS011;11761;51.324;4.590;2023-03-01T02:11:46;20.95;;;11.90;;
23185;SDS011;11761;51.324;4.590;2023-03-01T02:14:14;22.58;;;13.43;;
23185;SDS011;11761;51.324;4.590;2023-03-01T02:16:41;21.30;;;12.77;;
23185;SDS011;11761;51.324;4.590;2023-03-01T02:19:07;22.67;;;12.80;;
23185;SDS011;11761;51.324;4.590;2023-03-01T02:21:45;22.13;;;12.88;;
23185;SDS011;11761;51.324;4.590;2023-03-01T02:24:40;22.63;;;12.57;;
23185;SDS011;11761;51.324;4.590;2023-03-01T02:27:25;23.98;;;12.95;;
23185;SDS011;11761;51.324;4.590;2023-03-01T02:29:58;25.00;;;12.15;;
23185;SDS011;11761;51.324;4.590;2023-03-01T02:32:24;22.05;;;12.60;;
23185;SDS011;11761;51.324;4.590;2023-03-01T02:34:51;21.38;;;12.50;;
23185;SDS011;11761;51.324;4.590;2023-03-01T02:37:20;22.67;;;13.05;;
23185;SDS011;11761;51.324;4.590;2023-03-01T02:39:54;25.02;;;12.02;;
23185;SDS011;11761;51.324;4.590;2023-03-01T02:42:26;22.17;;;12.88;;
23185;SDS011;11761;51.324;4.590;2023-03-01T02:45:00;23.15;;;12.45;;
23185;SDS011;11761;51.324;4.590;2023-03-01T02:47:26;22.08;;;11.95;;
23185;SDS011;11761;51.324;4.590;2023-03-01T02:49:52;21.20;;;12.95;;
23185;SDS011;11761;51.324;4.590;2023-03-01T02:55:16;24.40;;;12.75;;
23185;SDS011;11761;51.324;4.590;2023-03-01T02:57:44;22.83;;;12.57;;
23185;SDS011;11761;51.324;4.590;2023-03-01T03:00:15;23.42;;;12.90;;
23185;SDS011;11761;51.324;4.590;2023-03-01T03:02:47;21.33;;;12.45;;
23185;SDS011;11761;51.324;4.590;2023-03-01T03:05:19;20.55;;;12.02;;
23185;SDS011;11761;51.324;4.590;2023-03-01T03:07:47;22.45;;;12.13;;
23185;SDS011;11761;51.324;4.590;2023-03-01T03:10:15;21.50;;;12.85;;
23185;SDS011;11761;51.324;4.590;2023-03-01T03:12:53;23.48;;;12.77;;
23185;SDS011;11761;51.324;4.590;2023-03-01T03:15:22;24.13;;;13.73;;
23185;SDS011;11761;51.324;4.590;2023-03-01T03:17:50;26.77;;;14.27;;
23185;SDS011;11761;51.324;4.590;2023-03-01T03:20:18;37.63;;;15.57;;
23185;SDS011;11761;51.324;4.590;2023-03-01T03:22:47;34.95;;;16.05;;
23185;SDS011;11761;51.324;4.590;2023-03-01T03:25:15;31.13;;;15.68;;
23185;SDS011;11761;51.324;4.590;2023-03-01T03:27:45;27.20;;;13.32;;
23185;SDS011;11761;51.324;4.590;2023-03-01T03:30:14;27.02;;;14.20;;
23185;SDS011;11761;51.324;4.590;2023-03-01T03:32:43;24.40;;;13.13;;
23185;SDS011;11761;51.324;4.590;2023-03-01T03:35:25;23.92;;;13.55;;
23185;SDS011;11761;51.324;4.590;2023-03-01T03:37:56;22.13;;;12.80;;
23185;SDS011;11761;51.324;4.590;2023-03-01T03:40:35;23.30;;;12.68;;
23185;SDS011;11761;51.324;4.590;2023-03-01T03:43:03;24.23;;;12.95;;
23185;SDS011;11761;51.324;4.590;2023-03-01T03:45:30;24.05;;;13.18;;
23185;SDS011;11761;51.324;4.590;2023-03-01T03:47:59;22.25;;;12.55;;
23185;SDS011;11761;51.324;4.590;2023-03-01T03:50:26;24.63;;;13.50;;
23185;SDS011;11761;51.324;4.590;2023-03-01T03:52:52;22.67;;;12.43;;
23185;SDS011;11761;51.324;4.590;2023-03-01T03:55:18;23.77;;;13.45;;
23185;SDS011;11761;51.324;4.590;2023-03-01T03:57:46;25.60;;;13.43;;
23185;SDS011;11761;51.324;4.590;2023-03-01T04:00:17;23.95;;;13.05;;
23185;SDS011;11761;51.324;4.590;2023-03-01T04:02:45;22.13;;;12.85;;
23185;SDS011;11761;51.324;4.590;2023-03-01T04:05:13;23.80;;;13.27;;
23185;SDS011;11761;51.324;4.590;2023-03-01T04:07:41;23.10;;;12.73;;
23185;SDS011;11761;51.324;4.590;2023-03-01T04:10:09;22.83;;;12.88;;
23185;SDS011;11761;51.324;4.590;2023-03-01T04:12:38;25.65;;;13.70;;
23185;SDS011;11761;51.324;4.590;2023-03-01T04:15:04;23.90;;;12.52;;
23185;SDS011;11761;51.324;4.590;2023-03-01T04:21:19;24.55;;;12.48;;
23185;SDS011;11761;51.324;4.590;2023-03-01T04:23:45;27.58;;;13.15;;
23185;SDS011;11761;51.324;4.590;2023-03-01T04:56:35;23.92;;;12.95;;
23185;SDS011;11761;51.324;4.590;2023-03-01T05:15:09;26.75;;;13.35;;
23185;SDS011;11761;51.324;4.590;2023-03-01T05:17:35;25.67;;;13.68;;
23185;SDS011;11761;51.324;4.590;2023-03-01T05:20:02;28.73;;;13.13;;
23185;SDS011;11761;51.324;4.590;2023-03-01T05:22:33;22.20;;;13.02;;
23185;SDS011;11761;51.324;4.590;2023-03-01T05:24:59;26.65;;;13.52;;
23185;SDS011;11761;51.324;4.590;2023-03-01T05:27:25;23.27;;;13.63;;
23185;SDS011;11761;51.324;4.590;2023-03-01T05:29:51;24.27;;;12.88;;
23185;SDS011;11761;51.324;4.590;2023-03-01T05:32:17;26.33;;;13.73;;
23185;SDS011;11761;51.324;4.590;2023-03-01T05:34:44;24.67;;;13.02;;
23185;SDS011;11761;51.324;4.590;2023-03-01T05:37:12;21.88;;;12.32;;
23185;SDS011;11761;51.324;4.590;2023-03-01T05:39:39;24.25;;;12.93;;
23185;SDS011;11761;51.324;4.590;2023-03-01T05:42:09;25.40;;;13.10;;
23185;SDS011;11761;51.324;4.590;2023-03-01T05:44:36;21.42;;;12.35;;
23185;SDS011;11761;51.324;4.590;2023-03-01T05:47:02;26.08;;;13.43;;
23185;SDS011;11761;51.324;4.590;2023-03-01T05:49:29;23.88;;;13.40;;
23185;SDS011;11761;51.324;4.590;2023-03-01T05:51:55;26.45;;;13.23;;
23185;SDS011;11761;51.324;4.590;2023-03-01T05:54:21;24.58;;;13.55;;
23185;SDS011;11761;51.324;4.590;2023-03-01T05:56:48;24.60;;;13.40;;
23185;SDS011;11761;51.324;4.590;2023-03-01T05:59:14;24.50;;;13.85;;
23185;SDS011;11761;51.324;4.590;2023-03-01T06:01:41;24.55;;;13.23;;
23185;SDS011;11761;51.324;4.590;2023-03-01T06:04:08;21.58;;;12.70;;
23185;SDS011;11761;51.324;4.590;2023-03-01T06:06:34;26.50;;;14.10;;
23185;SDS011;11761;51.324;4.590;2023-03-01T06:09:03;25.20;;;13.23;;
23185;SDS011;11761;51.324;4.590;2023-03-01T06:11:34;27.17;;;13.57;;
23185;SDS011;11761;51.324;4.590;2023-03-01T06:14:02;24.55;;;13.05;;
23185;SDS011;11761;51.324;4.590;2023-03-01T06:16:28;27.15;;;13.32;;
23185;SDS011;11761;51.324;4.590;2023-03-01T06:18:57;26.13;;;13.35;;
23185;SDS011;11761;51.324;4.590;2023-03-01T06:21:24;23.85;;;12.60;;
23185;SDS011;11761;51.324;4.590;2023-03-01T06:23:50;28.27;;;14.15;;
23185;SDS011;11761;51.324;4.590;2023-03-01T06:26:17;27.48;;;13.60;;
23185;SDS011;11761;51.324;4.590;2023-03-01T06:28:43;22.75;;;12.93;;
23185;SDS011;11761;51.324;4.590;2023-03-01T06:31:11;26.85;;;12.68;;
23185;SDS011;11761;51.324;4.590;2023-03-01T06:33:37;22.65;;;13.52;;
23185;SDS011;11761;51.324;4.590;2023-03-01T06:36:03;21.75;;;12.50;;
23185;SDS011;11761;51.324;4.590;2023-03-01T06:38:29;26.02;;;13.35;;
23185;SDS011;11761;51.324;4.590;2023-03-01T06:40:56;23.40;;;13.50;;
23185;SDS011;11761;51.324;4.590;2023-03-01T06:43:22;25.92;;;13.43;;
23185;SDS011;11761;51.324;4.590;2023-03-01T06:45:49;26.02;;;14.00;;
23185;SDS011;11761;51.324;4.590;2023-03-01T06:48:16;28.65;;;14.07;;
23185;SDS011;11761;51.324;4.590;2023-03-01T06:50:42;28.52;;;14.43;;
23185;SDS011;11761;51.324;4.590;2023-03-01T06:53:08;24.58;;;14.60;;
23185;SDS011;11761;51.324;4.590;2023-03-01T06:55:34;27.38;;;15.05;;
23185;SDS011;11761;51.324;4.590;2023-03-01T06:58:01;27.08;;;14.50;;
23185;SDS011;11761;51.324;4.590;2023-03-01T07:00:28;31.75;;;14.95;;
23185;SDS011;11761;51.324;4.590;2023-03-01T07:02:58;28.23;;;14.82;;
23185;SDS011;11761;51.324;4.590;2023-03-01T07:39:57;27.95;;;13.75;;
23185;SDS011;11761;51.324;4.590;2023-03-01T07:42:23;26.20;;;14.85;;
23185;SDS011;11761;51.324;4.590;2023-03-01T07:44:49;24.88;;;13.75;;
23185;SDS011;11761;51.324;4.590;2023-03-01T07:47:15;24.55;;;13.18;;
23185;SDS011;11761;51.324;4.590;2023-03-01T07:49:41;22.00;;;11.93;;
23185;SDS011;11761;51.324;4.590;2023-03-01T07:52:09;22.52;;;12.93;;
23185;SDS011;11761;51.324;4.590;2023-03-01T07:54:36;18.90;;;11.30;;
23185;SDS011;11761;51.324;4.590;2023-03-01T07:57:03;17.67;;;10.48;;
23185;SDS011;11761;51.324;4.590;2023-03-01T07:59:30;18.80;;;10.65;;
23185;SDS011;11761;51.324;4.590;2023-03-01T08:01:57;18.23;;;10.82;;
23185;SDS011;11761;51.324;4.590;2023-03-01T08:04:23;17.15;;;11.02;;
23185;SDS011;11761;51.324;4.590;2023-03-01T08:06:53;16.90;;;9.98;;
23185;SDS011;11761;51.324;4.590;2023-03-01T08:09:20;14.88;;;10.10;;
23185;SDS011;11761;51.324;4.590;2023-03-01T08:11:47;14.82;;;9.32;;
23185;SDS011;11761;51.324;4.590;2023-03-01T08:14:13;14.18;;;8.93;;
23185;SDS011;11761;51.324;4.590;2023-03-01T08:16:39;14.40;;;8.88;;
23185;SDS011;11761;51.324;4.590;2023-03-01T08:26:44;13.15;;;8.60;;
23185;SDS011;11761;51.324;4.590;2023-03-01T08:29:10;15.77;;;8.50;;
23185;SDS011;11761;51.324;4.590;2023-03-01T08:31:38;13.93;;;8.93;;
23185;SDS011;11761;51.324;4.590;2023-03-01T08:34:09;15.10;;;8.73;;
23185;SDS011;11761;51.324;4.590;2023-03-01T08:36:38;16.73;;;9.50;;
23185;SDS011;11761;51.324;4.590;2023-03-01T08:39:07;13.82;;;8.60;;
23185;SDS011;11761;51.324;4.590;2023-03-01T08:41:35;15.68;;;9.27;;
23185;SDS011;11761;51.324;4.590;2023-03-01T08:44:02;12.32;;;8.43;;
23185;SDS011;11761;51.324;4.590;2023-03-01T08:46:28;12.35;;;8.18;;
23185;SDS011;11761;51.324;4.590;2023-03-01T08:48:59;16.60;;;8.48;;
23185;SDS011;11761;51.324;4.590;2023-03-01T08:55:19;12.70;;;8.00;;
23185;SDS011;11761;51.324;4.590;2023-03-01T08:57:45;12.90;;;7.75;;
23185;SDS011;11761;51.324;4.590;2023-03-01T09:04:09;11.70;;;8.00;;
23185;SDS011;11761;51.324;4.590;2023-03-01T09:06:38;12.48;;;8.05;;
23185;SDS011;11761;51.324;4.590;2023-03-01T09:09:05;11.40;;;8.25;;
23185;SDS011;11761;51.324;4.590;2023-03-01T09:11:31;11.43;;;7.85;;
23185;SDS011;11761;51.324;4.590;2023-03-01T09:13:58;12.55;;;8.27;;
23185;SDS011;11761;51.324;4.590;2023-03-01T09:16:25;13.45;;;8.60;;
23185;SDS011;11761;51.324;4.590;2023-03-01T09:18:52;14.88;;;8.85;;
23185;SDS011;11761;51.324;4.590;2023-03-01T09:21:20;13.07;;;8.32;;
23185;SDS011;11761;51.324;4.590;2023-03-01T09:23:48;10.73;;;8.05;;
23185;SDS011;11761;51.324;4.590;2023-03-01T09:26:16;12.23;;;8.70;;
23185;SDS011;11761;51.324;4.590;2023-03-01T09:32:12;11.68;;;8.32;;
23185;SDS011;11761;51.324;4.590;2023-03-01T09:37:29;12.75;;;8.75;;
23185;SDS011;11761;51.324;4.590;2023-03-01T09:39:55;12.18;;;8.55;;
23185;SDS011;11761;51.324;4.590;2023-03-01T09:42:21;12.70;;;7.78;;
23185;SDS011;11761;51.324;4.590;2023-03-01T09:48:28;13.88;;;8.77;;
23185;SDS011;11761;51.324;4.590;2023-03-01T09:51:09;13.15;;;8.60;;
23185;SDS011;11761;51.324;4.590;2023-03-01T09:53:43;12.52;;;8.55;;
23185;SDS011;11761;51.324;4.590;2023-03-01T09:56:17;12.68;;;8.30;;
23185;SDS011;11761;51.324;4.590;2023-03-01T09:58:57;14.05;;;8.15;;
23185;SDS011;11761;51.324;4.590;2023-03-01T10:01:34;13.00;;;7.05;;
23185;SDS011;11761;51.324;4.590;2023-03-01T10:09:52;9.50;;;5.78;;
23185;SDS011;11761;51.324;4.590;2023-03-01T10:16:27;9.05;;;5.50;;
23185;SDS011;11761;51.324;4.590;2023-03-01T10:23:22;8.85;;;5.25;;
23185;SDS011;11761;51.324;4.590;2023-03-01T10:37:23;8.82;;;5.30;;
23185;SDS011;11761;51.324;4.590;2023-03-01T10:40:04;10.02;;;5.70;;
23185;SDS011;11761;51.324;4.590;2023-03-01T10:42:38;8.30;;;5.10;;
23185;SDS011;11761;51.324;4.590;2023-03-01T10:45:16;8.32;;;4.80;;
23185;SDS011;11761;51.324;4.590;2023-03-01T10:50:49;9.32;;;5.57;;
23185;SDS011;11761;51.324;4.590;2023-03-01T10:53:35;7.97;;;5.00;;
23185;SDS011;11761;51.324;4.590;2023-03-01T10:56:13;8.80;;;5.40;;
23185;SDS011;11761;51.324;4.590;2023-03-01T10:58:41;10.48;;;5.18;;
23185;SDS011;11761;51.324;4.590;2023-03-01T11:04:03;9.30;;;5.20;;
23185;SDS011;11761;51.324;4.590;2023-03-01T11:06:34;8.75;;;5.03;;
23185;SDS011;11761;51.324;4.590;2023-03-01T11:11:45;9.60;;;5.03;;
23185;SDS011;11761;51.324;4.590;2023-03-01T11:14:13;7.68;;;4.78;;
23185;SDS011;11761;51.324;4.590;2023-03-01T11:16:44;8.85;;;5.75;;
23185;SDS011;11761;51.324;4.590;2023-03-01T11:21:42;7.28;;;4.80;;
23185;SDS011;11761;51.324;4.590;2023-03-01T11:27:01;10.13;;;5.03;;
23185;SDS011;11761;51.324;4.590;2023-03-01T11:29:52;8.07;;;5.20;;
23185;SDS011;11761;51.324;4.590;2023-03-01T11:32:38;9.18;;;5.75;;
23185;SDS011;11761;51.324;4.590;2023-03-01T11:35:20;8.95;;;5.15;;
23185;SDS011;11761;51.324;4.590;2023-03-01T11:40:57;8.68;;;5.10;;
23185;SDS011;11761;51.324;4.590;2023-03-01T11:52:50;8.70;;;5.03;;
23185;SDS011;11761;51.324;4.590;2023-03-01T11:55:19;7.70;;;4.90;;
23185;SDS011;11761;51.324;4.590;2023-03-01T12:03:28;9.02;;;5.20;;
23185;SDS011;11761;51.324;4.590;2023-03-01T12:28:02;10.65;;;5.85;;
23185;SDS011;11761;51.324;4.590;2023-03-01T12:30:43;11.50;;;5.20;;
23185;SDS011;11761;51.324;4.590;2023-03-01T12:33:20;8.95;;;4.93;;
23185;SDS011;11761;51.324;4.590;2023-03-01T12:38:50;8.98;;;4.82;;
23185;SDS011;11761;51.324;4.590;2023-03-01T12:44:09;8.98;;;5.00;;
23185;SDS011;11761;51.324;4.590;2023-03-01T12:46:52;7.00;;;4.65;;
23185;SDS011;11761;51.324;4.590;2023-03-01T12:49:34;9.05;;;5.00;;
23185;SDS011;11761;51.324;4.590;2023-03-01T12:55:33;7.88;;;5.30;;
23185;SDS011;11761;51.324;4.590;2023-03-01T12:58:23;8.55;;;5.40;;
23185;SDS011;11761;51.324;4.590;2023-03-01T13:17:56;9.55;;;5.57;;
23185;SDS011;11761;51.324;4.590;2023-03-01T13:23:07;11.23;;;6.63;;
23185;SDS011;11761;51.324;4.590;2023-03-01T13:28:40;9.70;;;4.75;;
23185;SDS011;11761;51.324;4.590;2023-03-01T13:31:11;9.57;;;5.55;;
23185;SDS011;11761;51.324;4.590;2023-03-01T13:33:57;9.27;;;5.22;;
23185;SDS011;11761;51.324;4.590;2023-03-01T13:38:56;7.72;;;4.90;;
23185;SDS011;11761;51.324;4.590;2023-03-01T13:46:52;7.82;;;4.65;;
23185;SDS011;11761;51.324;4.590;2023-03-01T13:49:24;7.78;;;4.80;;
23185;SDS011;11761;51.324;4.590;2023-03-01T13:51:53;7.20;;;4.60;;
23185;SDS011;11761;51.324;4.590;2023-03-01T13:54:25;7.07;;;4.53;;
23185;SDS011;11761;51.324;4.590;2023-03-01T13:56:56;8.63;;;5.10;;
23185;SDS011;11761;51.324;4.590;2023-03-01T13:59:26;7.82;;;4.45;;
23185;SDS011;11761;51.324;4.590;2023-03-01T14:01:55;6.95;;;4.78;;
23185;SDS011;11761;51.324;4.590;2023-03-01T14:04:28;8.95;;;5.07;;
23185;SDS011;11761;51.324;4.590;2023-03-01T14:07:13;8.07;;;4.68;;
23185;SDS011;11761;51.324;4.590;2023-03-01T14:09:51;7.78;;;4.55;;
23185;SDS011;11761;51.324;4.590;2023-03-01T14:15:29;9.02;;;4.90;;
23185;SDS011;11761;51.324;4.590;2023-03-01T14:18:08;8.38;;;4.70;;
23185;SDS011;11761;51.324;4.590;2023-03-01T14:20:43;7.15;;;4.78;;
23185;SDS011;11761;51.324;4.590;2023-03-01T14:23:20;8.02;;;4.97;;
23185;SDS011;11761;51.324;4.590;2023-03-01T14:25:50;9.40;;;5.43;;
23185;SDS011;11761;51.324;4.590;2023-03-01T14:30:45;8.05;;;4.60;;
23185;SDS011;11761;51.324;4.590;2023-03-01T14:36:01;6.97;;;4.60;;
23185;SDS011;11761;51.324;4.590;2023-03-01T14:38:30;8.43;;;5.18;;
23185;SDS011;11761;51.324;4.590;2023-03-01T14:41:05;7.43;;;4.88;;
23185;SDS011;11761;51.324;4.590;2023-03-01T14:43:37;8.55;;;5.18;;
23185;SDS011;11761;51.324;4.590;2023-03-01T14:46:15;7.28;;;4.93;;
23185;SDS011;11761;51.324;4.590;2023-03-01T14:48:57;6.82;;;4.50;;
23185;SDS011;11761;51.324;4.590;2023-03-01T14:51:28;9.30;;;5.40;;
23185;SDS011;11761;51.324;4.590;2023-03-01T14:53:54;7.00;;;4.72;;
23185;SDS011;11761;51.324;4.590;2023-03-01T14:56:21;7.30;;;4.78;;
23185;SDS011;11761;51.324;4.590;2023-03-01T14:58:51;6.35;;;4.82;;
23185;SDS011;11761;51.324;4.590;2023-03-01T15:01:18;8.75;;;4.93;;
23185;SDS011;11761;51.324;4.590;2023-03-01T15:03:49;7.07;;;4.68;;
23185;SDS011;11761;51.324;4.590;2023-03-01T15:06:20;7.32;;;4.82;;
23185;SDS011;11761;51.324;4.590;2023-03-01T15:08:52;8.23;;;4.55;;
23185;SDS011;11761;51.324;4.590;2023-03-01T15:11:29;7.68;;;5.03;;
23185;SDS011;11761;51.324;4.590;2023-03-01T15:13:57;7.82;;;4.80;;
23185;SDS011;11761;51.324;4.590;2023-03-01T15:16:31;9.85;;;5.45;;
23185;SDS011;11761;51.324;4.590;2023-03-01T15:18:59;9.30;;;5.88;;
23185;SDS011;11761;51.324;4.590;2023-03-01T15:21:34;11.98;;;6.88;;
23185;SDS011;11761;51.324;4.590;2023-03-01T15:26:55;12.60;;;6.22;;
23185;SDS011;11761;51.324;4.590;2023-03-01T16:32:31;10.23;;;5.30;;
23185;SDS011;11761;51.324;4.590;2023-03-01T16:35:01;13.38;;;6.97;;
23185;SDS011;11761;51.324;4.590;2023-03-01T16:37:31;10.03;;;5.77;;
23185;SDS011;11761;51.324;4.590;2023-03-01T16:39:59;13.02;;;7.13;;
23185;SDS011;11761;51.324;4.590;2023-03-01T16:42:33;14.25;;;7.53;;
23185;SDS011;11761;51.324;4.590;2023-03-01T16:45:00;17.27;;;8.25;;
23185;SDS011;11761;51.324;4.590;2023-03-01T16:47:27;18.08;;;8.82;;
23185;SDS011;11761;51.324;4.590;2023-03-01T16:49:54;15.73;;;8.27;;
23185;SDS011;11761;51.324;4.590;2023-03-01T17:27:37;18.35;;;9.75;;
23185;SDS011;11761;51.324;4.590;2023-03-01T17:30:30;16.27;;;9.80;;
23185;SDS011;11761;51.324;4.590;2023-03-01T18:25:20;20.60;;;11.52;;
23185;SDS011;11761;51.324;4.590;2023-03-01T18:27:47;17.55;;;11.55;;
23185;SDS011;11761;51.324;4.590;2023-03-01T18:30:13;39.03;;;18.45;;
23185;SDS011;11761;51.324;4.590;2023-03-01T18:32:40;20.60;;;11.80;;
23185;SDS011;11761;51.324;4.590;2023-03-01T18:35:06;23.73;;;12.07;;
23185;SDS011;11761;51.324;4.590;2023-03-01T18:37:33;23.02;;;12.45;;
23185;SDS011;11761;51.324;4.590;2023-03-01T18:39:59;26.50;;;13.77;;
23185;SDS011;11761;51.324;4.590;2023-03-01T18:53:40;35.97;;;17.65;;
23185;SDS011;11761;51.324;4.590;2023-03-01T18:56:07;29.80;;;15.68;;
23185;SDS011;11761;51.324;4.590;2023-03-01T18:58:34;30.67;;;16.15;;
23185;SDS011;11761;51.324;4.590;2023-03-01T19:01:01;24.85;;;14.70;;
23185;SDS011;11761;51.324;4.590;2023-03-01T19:03:30;27.50;;;13.93;;
23185;SDS011;11761;51.324;4.590;2023-03-01T19:05:57;25.77;;;13.93;;
23185;SDS011;11761;51.324;4.590;2023-03-01T19:08:25;20.05;;;12.15;;
23185;SDS011;11761;51.324;4.590;2023-03-01T19:10:54;21.58;;;11.82;;
23185;SDS011;11761;51.324;4.590;2023-03-01T19:13:28;20.10;;;11.20;;
23185;SDS011;11761;51.324;4.590;2023-03-01T19:21:17;20.35;;;10.70;;
23185;SDS011;11761;51.324;4.590;2023-03-01T19:27:25;17.38;;;10.65;;
23185;SDS011;11761;51.324;4.590;2023-03-01T19:48:22;20.88;;;12.75;;
23185;SDS011;11761;51.324;4.590;2023-03-01T19:51:18;19.35;;;11.85;;
23185;SDS011;11761;51.324;4.590;2023-03-01T19:53:46;23.00;;;12.50;;
23185;SDS011;11761;51.324;4.590;2023-03-01T19:56:30;23.13;;;12.02;;
23185;SDS011;11761;51.324;4.590;2023-03-01T20:21:20;17.73;;;10.85;;
23185;SDS011;11761;51.324;4.590;2023-03-01T20:23:46;16.88;;;10.35;;
23185;SDS011;11761;51.324;4.590;2023-03-01T20:26:14;19.77;;;10.73;;
23185;SDS011;11761;51.324;4.590;2023-03-01T20:32:25;22.50;;;11.50;;
23185;SDS011;11761;51.324;4.590;2023-03-01T20:34:51;25.15;;;12.60;;
23185;SDS011;11761;51.324;4.590;2023-03-01T20:37:20;28.58;;;13.25;;
23185;SDS011;11761;51.324;4.590;2023-03-01T20:39:47;33.28;;;14.35;;
23185;SDS011;11761;51.324;4.590;2023-03-01T20:42:14;24.00;;;13.07;;
23185;SDS011;11761;51.324;4.590;2023-03-01T20:44:41;22.73;;;11.38;;
23185;SDS011;11761;51.324;4.590;2023-03-01T20:47:10;16.10;;;10.02;;
23185;SDS011;11761;51.324;4.590;2023-03-01T20:49:36;19.00;;;10.45;;
23185;SDS011;11761;51.324;4.590;2023-03-01T20:52:02;17.80;;;10.38;;
23185;SDS011;11761;51.324;4.590;2023-03-01T20:54:29;14.73;;;10.40;;
23185;SDS011;11761;51.324;4.590;2023-03-01T20:56:56;15.90;;;9.52;;
23185;SDS011;11761;51.324;4.590;2023-03-01T20:59:23;15.63;;;9.57;;
23185;SDS011;11761;51.324;4.590;2023-03-01T21:01:49;15.90;;;9.65;;
23185;SDS011;11761;51.324;4.590;2023-03-01T21:04:18;15.38;;;8.90;;
23185;SDS011;11761;51.324;4.590;2023-03-01T21:06:44;15.40;;;9.30;;
23185;SDS011;11761;51.324;4.590;2023-03-01T21:09:11;14.98;;;8.90;;
23185;SDS011;11761;51.324;4.590;2023-03-01T21:11:37;14.88;;;8.98;;
23185;SDS011;11761;51.324;4.590;2023-03-01T21:14:04;15.05;;;9.23;;
23185;SDS011;11761;51.324;4.590;2023-03-01T21:16:30;14.15;;;8.88;;
23185;SDS011;11761;51.324;4.590;2023-03-01T21:18:58;14.65;;;8.60;;
23185;SDS011;11761;51.324;4.590;2023-03-01T21:21:29;12.80;;;8.00;;
23185;SDS011;11761;51.324;4.590;2023-03-01T21:23:55;15.05;;;8.00;;
23185;SDS011;11761;51.324;4.590;2023-03-01T21:26:22;13.88;;;8.50;;
23185;SDS011;11761;51.324;4.590;2023-03-01T21:28:57;15.25;;;8.50;;
23185;SDS011;11761;51.324;4.590;2023-03-01T21:31:27;14.48;;;8.70;;
23185;SDS011;11761;51.324;4.590;2023-03-01T21:33:57;16.27;;;8.68;;
23185;SDS011;11761;51.324;4.590;2023-03-01T21:36:25;13.07;;;8.32;;
23185;SDS011;11761;51.324;4.590;2023-03-01T21:38:53;18.65;;;9.50;;
23185;SDS011;11761;51.324;4.590;2023-03-01T21:41:23;14.02;;;8.43;;
23185;SDS011;11761;51.324;4.590;2023-03-01T21:43:53;14.32;;;8.30;;
23185;SDS011;11761;51.324;4.590;2023-03-01T21:46:23;13.80;;;7.70;;
23185;SDS011;11761;51.324;4.590;2023-03-01T21:48:51;15.68;;;8.02;;
23185;SDS011;11761;51.324;4.590;2023-03-01T21:51:19;13.20;;;8.25;;
23185;SDS011;11761;51.324;4.590;2023-03-01T21:53:46;13.65;;;8.43;;
23185;SDS011;11761;51.324;4.590;2023-03-01T21:56:16;14.90;;;8.38;;
23185;SDS011;11761;51.324;4.590;2023-03-01T21:58:43;15.95;;;8.95;;
23185;SDS011;11761;51.324;4.590;2023-03-01T22:01:11;14.85;;;8.30;;
23185;SDS011;11761;51.324;4.590;2023-03-01T22:03:39;14.45;;;7.82;;
23185;SDS011;11761;51.324;4.590;2023-03-01T22:08:48;12.88;;;7.78;;
23185;SDS011;11761;51.324;4.590;2023-03-01T22:11:20;13.52;;;7.78;;
23185;SDS011;11761;51.324;4.590;2023-03-01T22:13:48;13.15;;;8.18;;
23185;SDS011;11761;51.324;4.590;2023-03-01T22:16:17;13.30;;;7.80;;
23185;SDS011;11761;51.324;4.590;2023-03-01T22:18:45;14.25;;;8.15;;
23185;SDS011;11761;51.324;4.590;2023-03-01T22:21:11;12.73;;;7.45;;
23185;SDS011;11761;51.324;4.590;2023-03-01T22:23:38;12.77;;;7.38;;
23185;SDS011;11761;51.324;4.590;2023-03-01T22:26:04;10.85;;;6.65;;
23185;SDS011;11761;51.324;4.590;2023-03-01T22:28:32;13.45;;;7.40;;
23185;SDS011;11761;51.324;4.590;2023-03-01T22:31:01;11.50;;;7.03;;
23185;SDS011;11761;51.324;4.590;2023-03-01T22:33:30;10.60;;;6.63;;
23185;SDS011;11761;51.324;4.590;2023-03-01T22:35:58;13.05;;;7.38;;
23185;SDS011;11761;51.324;4.590;2023-03-01T22:38:23;12.30;;;6.82;;
23185;SDS011;11761;51.324;4.590;2023-03-01T22:40:56;15.27;;;7.25;;